Time;durP1;ratioP1;P1;durP2;ratioP2;P2;SDS_P1;SDS_P2;PMS_P1;PMS_P2;Temp;Humidity;BMP_temperature;BMP_pressure;BME280_temperature;BME280_humidity;BME280_pressure;Samples;Min_cycle;Max_cycle;Signal;HPM_P1;HPM_P2
2022/06/29 00:00:35;;;;;;;17.95;12.18;;;;;;;19.63;100.00;99336.97;4301161;81;21004;-85
2022/06/29 00:06:39;;;;;;;17.02;14.93;;;;;;;19.64;100.00;99336.34;4307901;81;21016;-85
2022/06/29 00:12:43;;;;;;;20.95;15.23;;;;;;;19.66;100.00;99318.65;4314467;81;21075;-85
2022/06/29 00:18:44;;;;;;;13.93;12.07;;;;;;;19.62;100.00;99316.56;4310428;81;21106;-85
2022/06/29 00:24:46;;;;;;;18.70;16.05;;;;;;;19.59;100.00;99324.36;4296285;81;21038;-84
2022/06/29 00:30:47;;;;;;;16.37;13.45;;;;;;;19.69;100.00;99315.80;4298411;81;21050;-85
2022/06/29 00:36:48;;;;;;;15.13;13.45;;;;;;;19.68;100.00;99311.48;4255269;82;20996;-84
2022/06/29 00:42:50;;;;;;;18.95;16.55;;;;;;;19.62;100.00;99301.29;4287680;81;21971;-86
2022/06/29 00:48:51;;;;;;;21.70;17.23;;;;;;;19.64;100.00;99289.12;4236610;82;21031;-84
2022/06/29 00:55:01;;;;;;;18.10;15.55;;;;;;;19.60;100.00;99279.50;4228470;82;21554;-84
2022/06/29 01:01:04;;;;;;;20.20;15.58;;;;;;;19.56;100.00;99282.18;4238500;82;21068;-85
2022/06/29 01:07:06;;;;;;;17.45;15.25;;;;;;;19.59;100.00;99279.30;4238160;82;21045;-85
2022/06/29 01:13:07;;;;;;;20.45;16.25;;;;;;;19.57;100.00;99272.62;4238004;82;21019;-85
2022/06/29 01:19:20;;;;;;;20.57;17.07;;;;;;;19.55;100.00;99266.11;4304656;81;21082;-85
2022/06/29 01:25:22;;;;;;;20.23;16.40;;;;;;;19.54;100.00;99240.16;4302831;80;21589;-85
2022/06/29 01:31:23;;;;;;;18.52;16.50;;;;;;;19.53;100.00;99237.22;4220876;82;22251;-85
2022/06/29 01:37:25;;;;;;;19.82;16.87;;;;;;;19.54;100.00;99221.52;4381448;79;21949;-84
2022/06/29 01:43:26;;;;;;;19.55;16.40;;;;;;;19.49;100.00;99215.67;4377415;79;21058;-85
2022/06/29 01:49:28;;;;;;;20.75;13.32;;;;;;;19.48;100.00;99224.60;4379665;79;21442;-85
2022/06/29 01:55:29;;;;;;;17.12;12.50;;;;;;;19.54;100.00;99232.63;4377659;79;21035;-85
2022/06/29 02:01:31;;;;;;;24.02;13.80;;;;;;;19.63;100.00;99241.75;4367726;79;21087;-85
2022/06/29 02:07:32;;;;;;;19.25;16.48;;;;;;;19.73;100.00;99252.63;4385193;79;21064;-85
2022/06/29 02:13:34;;;;;;;21.37;16.15;;;;;;;19.70;100.00;99233.28;4353679;79;21076;-84
2022/06/29 02:19:35;;;;;;;17.57;13.30;;;;;;;19.59;100.00;99209.89;4367397;79;21494;-84
2022/06/29 02:25:37;;;;;;;17.65;13.90;;;;;;;19.50;100.00;99206.13;4395082;79;21005;-85
2022/06/29 02:37:58;;;;;;;26.27;13.60;;;;;;;19.57;100.00;99204.59;4388239;79;21584;-85
2022/06/29 02:44:00;;;;;;;17.75;14.53;;;;;;;19.61;100.00;99221.95;4371452;79;21516;-85
2022/06/29 02:50:01;;;;;;;17.77;13.78;;;;;;;19.65;100.00;99214.34;4384314;79;21495;-85
2022/06/29 02:56:04;;;;;;;17.30;14.93;;;;;;;19.64;100.00;99211.37;4379589;79;21020;-85
2022/06/29 03:02:05;;;;;;;19.77;16.00;;;;;;;19.71;100.00;99215.39;4403416;79;21511;-86
2022/06/29 03:08:07;;;;;;;17.48;13.93;;;;;;;19.65;100.00;99206.02;4375583;79;21550;-86
2022/06/29 03:14:08;;;;;;;19.37;15.90;;;;;;;19.70;100.00;99215.23;4383038;79;21101;-86
2022/06/29 03:20:13;;;;;;;16.15;13.58;;;;;;;19.75;100.00;99211.32;4379977;79;21076;-85
2022/06/29 03:26:14;;;;;;;17.17;14.85;;;;;;;19.78;100.00;99207.68;4308538;80;21607;-85
2022/06/29 03:32:15;;;;;;;17.77;14.73;;;;;;;19.77;100.00;99195.02;4298708;80;21051;-85
2022/06/29 03:38:17;;;;;;;15.90;13.62;;;;;;;19.72;100.00;99177.47;4285887;80;21021;-85
2022/06/29 03:44:18;;;;;;;16.37;12.50;;;;;;;19.67;100.00;99168.88;4311937;80;21008;-85
2022/06/29 03:50:20;;;;;;;14.55;12.13;;;;;;;19.65;100.00;99181.81;4314766;80;21023;-85
2022/06/29 03:56:32;;;;;;;12.95;11.57;;;;;;;19.69;100.00;99178.33;4304383;80;21528;-85
2022/06/29 04:02:46;;;;;;;18.15;11.90;;;;;;;19.75;100.00;99174.42;4287780;80;21062;-86
2022/06/29 04:08:48;;;;;;;15.58;12.85;;;;;;;19.77;100.00;99176.17;4299986;81;21037;-85
2022/06/29 04:14:49;;;;;;;15.90;13.60;;;;;;;19.83;100.00;99175.23;4299025;81;21090;-85
2022/06/29 04:21:08;;;;;;;14.90;11.50;;;;;;;19.90;100.00;99175.08;4332469;79;21138;-85
2022/06/29 04:27:10;;;;;;;16.80;11.18;;;;;;;19.97;100.00;99164.38;4358194;79;21063;-86
2022/06/29 04:33:11;;;;;;;15.10;13.40;;;;;;;20.07;100.00;99159.19;4359979;79;21058;-86
2022/06/29 04:39:13;;;;;;;21.17;15.20;;;;;;;20.10;100.00;99160.49;4366670;79;21027;-85
2022/06/29 04:51:35;;;;;;;21.57;16.60;;;;;;;20.28;100.00;99164.86;4371637;79;20995;-85
2022/06/29 04:57:36;;;;;;;19.87;16.20;;;;;;;20.35;100.00;99163.27;4361208;79;21238;-85
2022/06/29 05:03:38;;;;;;;21.87;16.25;;;;;;;20.39;100.00;99173.71;4360702;79;21062;-85
2022/06/29 05:09:39;;;;;;;17.77;15.85;;;;;;;20.49;100.00;99163.70;4347412;79;21557;-86
2022/06/29 05:15:41;;;;;;;20.97;16.70;;;;;;;20.54;100.00;99169.34;4356358;79;21034;-86
2022/06/29 05:21:42;;;;;;;19.77;17.50;;;;;;;20.61;100.00;99168.53;4368151;79;21054;-85
2022/06/29 05:27:43;;;;;;;24.82;19.05;;;;;;;20.66;100.00;99165.23;4387146;79;20983;-85
2022/06/29 05:33:44;;;;;;;26.55;20.45;;;;;;;20.62;100.00;99161.77;4368222;79;21068;-86
2022/06/29 05:39:45;;;;;;;27.82;20.60;;;;;;;20.68;100.00;99166.97;4382482;79;21038;-85
2022/06/29 05:45:47;;;;;;;27.85;22.25;;;;;;;20.83;100.00;99177.87;4368799;79;21011;-86
2022/06/29 05:51:49;;;;;;;27.35;22.17;;;;;;;20.98;100.00;99177.70;4376075;79;21025;-84
2022/06/29 05:57:50;;;;;;;29.95;22.30;;;;;;;21.11;100.00;99178.50;4381175;79;21031;-84
2022/06/29 06:03:51;;;;;;;28.60;20.77;;;;;;;21.30;100.00;99171.20;4381458;79;21022;-86
2022/06/29 06:09:53;;;;;;;25.82;17.30;;;;;;;21.45;100.00;99168.19;4375495;79;21102;-85
2022/06/29 06:15:54;;;;;;;22.25;18.45;;;;;;;21.49;100.00;99169.63;4381621;79;21048;-85
2022/06/29 06:21:56;;;;;;;17.98;16.12;;;;;;;21.63;100.00;99178.95;4381904;79;20996;-86
2022/06/29 06:27:58;;;;;;;20.10;15.98;;;;;;;21.81;100.00;99177.66;4340846;79;20988;-86
2022/06/29 06:33:59;;;;;;;17.42;14.68;;;;;;;21.89;99.90;99172.03;4308397;79;21059;-85
2022/06/29 06:46:21;;;;;;;18.10;15.48;;;;;;;22.08;99.16;99175.96;4314491;79;20988;-86
2022/06/29 06:52:22;;;;;;;18.60;15.50;;;;;;;22.22;98.40;99151.83;4333063;79;21015;-86
2022/06/29 06:58:23;;;;;;;16.87;15.15;;;;;;;22.58;98.30;99147.23;4324879;79;20991;-85
2022/06/29 07:04:25;;;;;;;15.18;13.68;;;;;;;22.99;96.93;99143.53;4252501;81;21035;-86
2022/06/29 07:10:28;;;;;;;16.23;14.00;;;;;;;23.65;97.32;99141.48;4240367;81;21011;-86
2022/06/29 07:16:30;;;;;;;15.40;13.00;;;;;;;24.14;95.21;99139.49;4315975;80;21095;-86
2022/06/29 07:22:31;;;;;;;13.93;12.35;;;;;;;24.54;95.03;99137.41;4307534;79;21005;-86
2022/06/29 07:28:32;;;;;;;12.37;11.10;;;;;;;24.85;93.60;99131.06;4323273;79;21082;-85
2022/06/29 07:34:33;;;;;;;12.55;11.08;;;;;;;24.83;92.29;99129.95;4296715;80;21067;-86
2022/06/29 07:40:35;;;;;;;13.60;11.00;;;;;;;24.83;89.83;99125.75;4326714;79;20991;-86
2022/06/29 07:46:36;;;;;;;11.43;10.30;;;;;;;24.96;89.26;99125.77;4331202;79;21054;-87
2022/06/29 07:52:42;;;;;;;13.50;11.25;;;;;;;25.60;89.05;99116.59;4310277;79;20980;-86
2022/06/29 07:58:43;;;;;;;12.68;10.68;;;;;;;25.87;86.49;99114.44;4299233;81;21572;-85
2022/06/29 08:04:44;;;;;;;10.78;9.68;;;;;;;25.96;84.91;99114.42;4298558;81;21015;-85
2022/06/29 08:10:46;;;;;;;11.30;9.38;;;;;;;25.95;81.40;99113.49;4311652;79;21008;-85
2022/06/29 08:16:47;;;;;;;10.82;9.73;;;;;;;25.89;77.42;99109.76;4325905;79;21034;-87
2022/06/29 08:22:49;;;;;;;10.60;9.43;;;;;;;25.90;77.50;99102.92;4343002;79;21967;-86
2022/06/29 08:28:51;;;;;;;11.12;9.68;;;;;;;26.03;78.72;99095.84;4335725;79;21586;-86
2022/06/29 08:34:52;;;;;;;11.40;10.25;;;;;;;26.40;79.21;99094.99;4354094;79;21035;-85
2022/06/29 08:40:56;;;;;;;11.70;9.70;;;;;;;26.43;75.25;99077.19;4245283;81;21116;-87
2022/06/29 08:46:58;;;;;;;9.75;8.95;;;;;;;26.61;77.33;99071.41;4304179;80;21011;-86
2022/06/29 08:53:03;;;;;;;10.75;9.75;;;;;;;26.81;76.71;99066.59;4324211;79;21637;-86
2022/06/29 08:59:05;;;;;;;9.80;8.90;;;;;;;26.82;75.19;99067.52;4309337;81;21021;-86
2022/06/29 09:05:08;;;;;;;10.40;9.40;;;;;;;26.99;75.82;99063.59;4291768;81;21034;-87
2022/06/29 09:11:29;;;;;;;12.30;10.28;;;;;;;27.12;74.30;99061.28;4363222;79;21030;-87
2022/06/29 09:17:33;;;;;;;10.23;9.33;;;;;;;27.02;73.22;99052.17;4323556;79;20990;-87
2022/06/29 09:23:35;;;;;;;11.45;9.25;;;;;;;27.27;73.25;99062.06;4353530;79;22116;-87
2022/06/29 09:29:41;;;;;;;9.10;8.25;;;;;;;27.51;73.46;99055.08;4366270;79;21026;-87
2022/06/29 09:35:42;;;;;;;10.35;9.35;;;;;;;27.78;72.96;99060.97;4386786;79;20987;-86
2022/06/29 09:41:44;;;;;;;10.75;9.65;;;;;;;27.92;67.85;99049.55;4400224;79;21047;-87
2022/06/29 09:47:46;;;;;;;10.03;8.53;;;;;;;28.29;70.56;99043.51;4397786;79;21034;-87
2022/06/29 09:54:06;;;;;;;12.78;9.00;;;;;;;28.73;70.56;99044.05;4404020;79;21078;-86
2022/06/29 10:06:29;;;;;;;10.55;9.15;;;;;;;29.33;68.36;99043.88;4314707;79;21059;-87
2022/06/29 10:19:35;;;;;;;12.37;9.70;;;;;;;29.83;67.33;99023.88;4401791;79;21011;-86
2022/06/29 10:25:39;;;;;;;12.07;9.95;;;;;;;29.95;66.62;99028.92;4363544;79;21025;-86
2022/06/29 10:31:56;;;;;;;10.38;8.98;;;;;;;30.34;66.24;99031.30;4321240;80;20989;-87
2022/06/29 10:37:58;;;;;;;12.00;9.05;;;;;;;30.73;65.76;99024.38;4211495;78;10000477;-87
2022/06/29 10:43:59;;;;;;;11.22;9.25;;;;;;;30.97;65.08;99017.61;4340334;80;20997;-87
2022/06/29 10:50:24;;;;;;;10.23;9.18;;;;;;;31.19;64.15;99015.58;4344549;80;21843;-87
2022/06/29 10:56:25;;;;;;;11.07;9.07;;;;;;;31.43;62.77;99010.17;4334791;80;21440;-88
2022/06/29 11:02:26;;;;;;;8.98;8.05;;;;;;;31.57;62.50;99011.20;4346284;80;22055;-87
2022/06/29 11:21:11;;;;;;;9.95;7.92;;;;;;;32.33;59.02;98991.02;4346254;80;21001;-87
2022/06/29 11:27:38;;;;;;;8.40;7.70;;;;;;;32.60;58.17;98986.52;4332851;80;21106;-86
2022/06/29 11:33:46;;;;;;;9.18;8.15;;;;;;;32.83;58.20;98970.89;4297952;81;20968;-87
2022/06/29 11:39:48;;;;;;;9.88;7.62;;;;;;;33.07;56.62;98974.61;4291571;80;20995;-87
2022/06/29 11:45:52;;;;;;;10.38;7.87;;;;;;;33.12;56.95;98957.42;4307804;81;21512;-87
2022/06/29 11:51:57;;;;;;;10.72;7.60;;;;;;;33.49;56.00;98959.02;4305432;80;20982;-87
2022/06/29 11:57:59;;;;;;;8.28;7.42;;;;;;;33.60;55.69;98946.77;4306455;80;20991;-88
2022/06/29 12:04:03;;;;;;;8.88;7.62;;;;;;;33.61;55.11;98939.81;4280919;81;21172;-87
2022/06/29 12:10:05;;;;;;;12.93;8.45;;;;;;;33.58;54.48;98945.89;4306347;81;21538;-87
2022/06/29 12:16:06;;;;;;;10.65;8.20;;;;;;;33.01;52.65;98939.87;4299642;81;21762;-87
2022/06/29 12:22:08;;;;;;;8.63;7.83;;;;;;;32.87;52.79;98928.20;4303594;81;22152;-87
2022/06/29 12:28:09;;;;;;;10.43;8.58;;;;;;;32.77;52.06;98922.76;4271548;80;21000;-85
2022/06/29 12:34:14;;;;;;;10.18;8.13;;;;;;;32.32;48.99;98915.84;4304746;80;21615;-86
2022/06/29 12:40:15;;;;;;;10.38;8.90;;;;;;;31.98;49.98;98911.00;4295746;80;20977;-86
2022/06/29 12:46:16;;;;;;;9.65;8.30;;;;;;;31.66;50.62;98907.64;4278850;80;21045;-87
2022/06/29 12:52:18;;;;;;;10.55;7.85;;;;;;;31.64;51.33;98901.72;4297455;80;21072;-86
2022/06/29 12:58:20;;;;;;;10.05;8.15;;;;;;;31.53;51.31;98898.94;4270288;80;22123;-88
2022/06/29 13:04:21;;;;;;;14.93;8.25;;;;;;;31.42;51.80;98896.14;4288658;80;21012;-86
2022/06/29 13:10:23;;;;;;;9.03;8.13;;;;;;;31.31;52.03;98896.16;4285830;80;21943;-88
2022/06/29 13:16:25;;;;;;;13.40;8.55;;;;;;;31.21;52.52;98901.32;4270518;80;21032;-88
2022/06/29 13:22:26;;;;;;;12.37;7.85;;;;;;;31.16;52.67;98902.73;4320901;80;21032;-87
2022/06/29 13:28:27;;;;;;;11.30;7.97;;;;;;;31.05;53.45;98892.22;4399627;79;20968;-87
2022/06/29 13:34:29;;;;;;;10.80;8.28;;;;;;;30.87;53.88;98877.19;4383877;79;21011;-87
2022/06/29 13:40:31;;;;;;;15.03;7.72;;;;;;;30.68;54.10;98872.56;4393445;79;20989;-85
2022/06/29 13:46:32;;;;;;;9.45;7.85;;;;;;;30.48;54.20;98865.87;4397331;79;21590;-88
2022/06/29 13:52:34;;;;;;;13.13;7.95;;;;;;;30.41;54.38;98866.37;4384921;79;21021;-86
2022/06/29 13:58:35;;;;;;;9.05;7.50;;;;;;;30.43;54.07;98863.03;4388515;79;22128;-88
2022/06/29 14:04:36;;;;;;;9.28;8.10;;;;;;;30.47;53.82;98855.88;4387923;79;21555;-86
2022/06/29 14:10:37;;;;;;;15.80;8.70;;;;;;;30.47;53.62;98871.41;4397037;79;21042;-86
2022/06/29 14:16:42;;;;;;;9.43;7.95;;;;;;;30.59;53.46;98857.28;4393195;79;20996;-85
2022/06/29 14:22:43;;;;;;;8.93;7.45;;;;;;;30.62;53.13;98857.67;4385933;79;20984;-87
2022/06/29 14:28:44;;;;;;;12.23;8.60;;;;;;;30.67;53.48;98856.24;4371966;79;21035;-85
2022/06/29 14:34:45;;;;;;;11.55;8.65;;;;;;;30.68;53.67;98849.95;4385977;79;21872;-86
2022/06/29 14:40:47;;;;;;;11.03;9.03;;;;;;;30.60;53.99;98849.71;4377398;79;21017;-86
2022/06/29 14:46:48;;;;;;;10.23;8.10;;;;;;;30.46;54.42;98840.85;4385779;79;20964;-86
2022/06/29 14:52:50;;;;;;;12.20;9.18;;;;;;;30.32;54.52;98814.39;4385722;79;21471;-86
2022/06/29 14:58:51;;;;;;;11.50;8.95;;;;;;;30.22;54.94;98811.70;4390156;79;21007;-86
2022/06/29 15:04:56;;;;;;;11.68;8.73;;;;;;;30.18;55.67;98837.96;4361856;79;20964;-85
2022/06/29 15:10:57;;;;;;;12.05;8.68;;;;;;;29.99;55.41;98840.38;4375356;79;20971;-86
2022/06/29 15:16:59;;;;;;;11.97;9.35;;;;;;;29.75;56.09;98809.80;4366155;79;21098;-84
2022/06/29 15:23:01;;;;;;;14.90;9.75;;;;;;;29.57;56.00;98805.22;4382186;79;21004;-85
2022/06/29 15:29:04;;;;;;;11.60;8.45;;;;;;;29.58;55.01;98800.48;4259724;81;20960;-86
2022/06/29 15:41:30;;;;;;;14.85;8.55;;;;;;;29.39;55.63;98826.17;4175923;82;21052;-86
2022/06/29 15:47:36;;;;;;;11.08;8.35;;;;;;;29.33;55.90;98797.81;4177987;82;21070;-86
2022/06/29 16:00:12;;;;;;;10.03;8.50;;;;;;;28.93;57.07;98834.08;4316400;80;20975;-86
2022/06/29 16:06:13;;;;;;;14.15;9.80;;;;;;;28.63;58.03;98842.06;4245188;82;21513;-86
2022/06/29 16:12:16;;;;;;;15.80;9.50;;;;;;;28.36;58.59;98826.33;4123599;82;10000184;-86
2022/06/29 16:18:17;;;;;;;14.70;11.22;;;;;;;28.16;59.27;98813.09;4249780;81;21089;-86
2022/06/29 16:24:21;;;;;;;23.07;15.03;;;;;;;28.03;59.77;98805.70;4251394;81;21924;-86
2022/06/29 16:30:22;;;;;;;19.25;13.68;;;;;;;27.85;60.54;98810.83;4233990;81;20993;-85
2022/06/29 16:36:24;;;;;;;22.27;13.98;;;;;;;27.68;61.44;98809.88;4234549;81;20992;-86
2022/06/29 16:42:25;;;;;;;18.85;12.65;;;;;;;27.46;62.16;98790.11;4249130;81;21035;-85
2022/06/29 16:48:27;;;;;;;16.52;10.82;;;;;;;27.31;62.98;98795.67;4250456;81;21529;-86
2022/06/29 16:54:30;;;;;;;17.90;11.15;;;;;;;27.18;63.31;98804.42;4232644;81;21776;-88
2022/06/29 17:00:31;;;;;;;14.23;10.72;;;;;;;27.07;63.79;98818.31;4252501;81;20991;-87
2022/06/29 17:06:33;;;;;;;17.98;11.85;;;;;;;26.94;64.23;98804.45;4250841;81;21952;-85
2022/06/29 17:12:34;;;;;;;19.92;12.90;;;;;;;26.75;65.19;98798.31;4241655;81;20969;-85
2022/06/29 17:18:37;;;;;;;14.45;11.93;;;;;;;26.53;66.12;98795.14;4248888;81;21534;-86
2022/06/29 17:24:39;;;;;;;17.12;12.05;;;;;;;26.33;67.46;98802.74;4241974;81;21028;-87
2022/06/29 17:30:41;;;;;;;15.18;11.18;;;;;;;26.20;68.43;98807.25;4243861;81;21104;-86
2022/06/29 19:36:18;;;;;;;12.82;11.12;;;;;;;23.13;78.10;98830.28;4602748;74;22720;-89
2022/06/29 19:42:19;;;;;;;15.43;11.73;;;;;;;23.04;78.71;98824.69;4386702;77;10000276;-92
2022/06/29 19:48:20;;;;;;;17.67;11.83;;;;;;;23.03;79.27;98829.34;4519870;77;21063;-89
2022/06/29 19:54:22;;;;;;;19.77;12.07;;;;;;;22.92;79.93;98824.81;4522341;77;21088;-87
2022/06/29 20:00:23;;;;;;;20.60;11.90;;;;;;;22.92;80.60;98822.02;4519764;77;21108;-88
2022/06/29 20:06:27;;;;;;;17.55;12.20;;;;;;;22.87;81.14;98819.22;4518394;77;21060;-89
2022/06/29 20:12:28;;;;;;;18.82;11.30;;;;;;;22.77;81.56;98812.69;4514697;77;21045;-86
2022/06/29 20:18:30;;;;;;;13.03;11.70;;;;;;;22.75;82.12;98829.89;4512334;77;21017;-90
2022/06/29 20:24:32;;;;;;;17.52;13.38;;;;;;;22.67;82.67;98827.84;4517395;77;21560;-88
2022/06/29 20:30:34;;;;;;;21.27;13.85;;;;;;;22.65;83.22;98824.11;4519895;77;21458;-90
2022/06/29 20:36:36;;;;;;;15.28;13.35;;;;;;;22.61;83.68;98822.09;4541552;77;21009;-88
2022/06/29 20:42:38;;;;;;;20.10;13.40;;;;;;;22.62;84.38;98814.48;4546310;77;22560;-89
2022/06/29 20:48:39;;;;;;;13.85;11.45;;;;;;;22.73;84.80;98814.83;4537280;77;22398;-90
2022/06/29 20:54:42;;;;;;;15.55;12.73;;;;;;;22.82;84.96;98829.59;4509746;77;21548;-88
2022/06/29 21:00:43;;;;;;;17.90;13.70;;;;;;;22.81;85.07;98829.45;4540275;77;21001;-89
2022/06/29 21:06:52;;;;;;;15.32;12.10;;;;;;;22.70;85.57;98826.92;4537625;77;21011;-89
2022/06/29 21:12:49;;;;;;;14.85;13.13;;;;;;;22.73;86.00;98819.80;4514335;77;20990;-88
2022/06/29 21:18:50;;;;;;;14.20;11.68;;;;;;;22.77;86.24;98823.21;4542996;77;21710;-90
2022/06/29 21:24:52;;;;;;;12.35;10.65;;;;;;;22.80;86.47;98828.51;4539407;77;21096;-88
2022/06/29 21:30:53;;;;;;;16.93;11.70;;;;;;;22.79;86.66;98831.12;4520257;77;21022;-91
2022/06/29 21:36:59;;;;;;;20.95;14.60;;;;;;;22.76;86.65;98832.05;4485823;77;21519;-87
2022/06/29 21:43:01;;;;;;;17.98;13.95;;;;;;;22.59;86.85;98824.56;4512578;77;21072;-88
2022/06/29 21:55:23;;;;;;;16.10;12.28;;;;;;;22.35;87.91;98819.30;4508717;77;21041;-91
2022/06/29 22:01:24;;;;;;;13.78;12.33;;;;;;;22.31;88.29;98817.28;4507637;77;21001;-91
2022/06/29 22:07:25;;;;;;;15.43;12.45;;;;;;;22.28;88.58;98827.17;4511271;77;21049;-89
2022/06/29 22:13:28;;;;;;;17.35;12.35;;;;;;;22.16;88.71;98817.65;4487885;77;21012;-88
2022/06/29 22:19:29;;;;;;;16.90;12.28;;;;;;;22.07;89.17;98816.81;4377748;79;21054;-89
2022/06/29 22:25:33;;;;;;;14.50;12.55;;;;;;;22.08;89.54;98821.18;4426182;79;21043;-90
2022/06/29 22:31:34;;;;;;;19.50;15.05;;;;;;;;;;4395707;79;21077;-90
2022/06/29 22:37:35;;;;;;;28.52;23.30;;;;;;;21.86;89.84;98821.20;4421600;78;21513;-90
2022/06/29 22:43:36;;;;;;;30.77;20.72;;;;;;;21.77;90.39;98818.33;4428061;78;21085;-88
2022/06/29 22:49:38;;;;;;;25.15;21.40;;;;;;;21.62;90.78;98813.89;4418520;78;21065;-91
2022/06/29 22:55:39;;;;;;;30.17;23.67;;;;;;;21.56;91.13;98807.31;4422665;78;21072;-91
2022/06/29 23:01:41;;;;;;;25.70;21.87;;;;;;;21.50;91.46;98800.02;4424525;78;21040;-88
2022/06/29 23:07:43;;;;;;;19.02;17.10;;;;;;;21.38;91.63;98776.55;4426384;78;21029;-90
2022/06/29 23:13:44;;;;;;;23.15;17.50;;;;;;;21.29;92.29;98780.66;4428682;78;21545;-90
2022/06/29 23:19:50;;;;;;;24.07;17.92;;;;;;;21.19;92.90;98771.30;4426136;78;21011;-89
2022/06/29 23:25:49;;;;;;;21.62;17.35;;;;;;;21.27;93.21;98774.77;4421697;78;21046;-90
2022/06/29 23:31:50;;;;;;;19.92;17.85;;;;;;;21.26;93.54;98764.87;4418660;78;21103;-89
2022/06/29 23:37:51;;;;;;;18.55;16.17;;;;;;;21.21;93.86;98775.78;4414119;79;21068;-88
2022/06/29 23:43:53;;;;;;;16.05;14.35;;;;;;;21.24;94.34;98784.62;4409428;79;21089;-90
2022/06/29 23:49:54;;;;;;;25.62;17.45;;;;;;;21.36;94.53;98783.81;4407299;79;21081;-88
2022/06/29 23:55:56;;;;;;;18.75;16.82;;;;;;;21.26;94.38;98778.00;4377096;79;21037;-89
